Starke, FL

5:15 AM EDT on September 17, 2014 (GMT -0400)
North Keystone | Change Station
CLOSE
Current Station
Personal Weather Station
Location: Keystone Heights, FL
Elevation: 174 ft
Nearby Weather Stations

Elev 174 ft 29.83 °N, 81.98 °W | Updated 8 seconds ago

Partly Cloudy
Partly Cloudy
70.9 °F
Feels Like 75 °F
N
0.0
Wind Variable Wind from NNW
Gusts 0.0 mph

Today
High -- | Low -- °F
--% Chance of Precip.
Yesterday
High -- | Low -- °F
Precip. -- in
7:13 AM 7:31 PM
Last Quarter, 37% visible
Pressure 29.91 in
Visibility 10.0 miles
Clouds Overcast 500 ft
Heat Index 75 °F
Dew Point 59 °F
Humidity 67%
Rainfall 0.00 in
Snow Depth Not available.
UV 0 out of 12
Pollen 4.60 out of 12
Air Quality Not available.
Flu Activity Not available.
METAR KVQQ 170855Z AUTO 00000KT 10SM OVC005 22/22 A2991 RMK AO2

More Conditions Fewer Conditions

Pressure 29.91 in
Visibility 10.0 miles
Clouds Overcast 500 ft
Heat Index 75 °F
Dew Point 59 °F
Humidity 67%
Rainfall 0.00 in
Snow Depth Not available.
UV 0 out of 12
Pollen 4.60 out of 12
Air Quality Not available.
Flu Activity Not available.
METAR KVQQ 170855Z AUTO 00000KT 10SM OVC005 22/22 A2991 RMK AO2

More Conditions Fewer Conditions

10-Day Weather Forecast

Almanac

Astronomy

Sep. 17, 2014 Rise Set
Actual Time 7:13 AM EDT 7:31 PM EDT
Civil Twilight 6:50 AM EDT 7:54 PM EDT
Nautical Twilight 6:22 AM EDT 8:22 PM EDT
Astronomical Twilight 5:53 AM EDT 8:51 PM EDT
Moon 1:31 AM EDT 3:22 PM EDT
Length of Visible Light 13h 04m
Length of Day
12h 17m
Tomorrow will be 1m 48s shorter.
Last Quarter, 37% of the Moon is Illuminated
Today
Last Quarter
Sep 24
New
Oct 1
First Quarter
Oct 8
Full
Oct 15
Last Quarter

Today's Extremes

State Highs State Lows

Community

WunderPhotos

Upload Photos

1,753,991 photos uploaded!

Nearby

Snow Depth

Station Depth Elevation
No new snow has been reported.

Earthquake Activity

City Distance Mag. Time & Date
No recent earthquake activity has been reported nearby.
Minimum magnitude displayed is 2.5.

Coastal Water Temperatures

Place Temperature
No Stations Reporting

Nearby Weather Stations